Time;durP1;ratioP1;P1;durP2;ratioP2;P2;SDS_P1;SDS_P2;PMS_P1;PMS_P2;Temp;Humidity;BMP_temperature;BMP_pressure;BME280_temperature;BME280_humidity;BME280_pressure;Samples;Min_cycle;Max_cycle;Signal;HPM_P1;HPM_P2
2023/10/30 00:01:55;;;;;;;;;7.50;7.25;;;;;-143.90;100.00;74748.44;4971454;28;102920;-80
2023/10/30 00:04:22;;;;;;;;;5.25;3.00;;;;;-143.90;100.00;74738.09;4968401;27;102901;-81
2023/10/30 00:06:48;;;;;;;;;5.00;3.25;;;;;-143.90;100.00;74723.63;4965164;28;101944;-79
2023/10/30 00:09:17;;;;;;;;;4.50;4.25;;;;;-143.90;100.00;74733.97;4990382;28;103111;-80
2023/10/30 00:11:46;;;;;;;;;10.00;8.75;;;;;-143.90;100.00;74742.22;4973995;28;101649;-80
2023/10/30 00:14:14;;;;;;;;;9.75;9.75;;;;;-143.90;100.00;74750.50;4990836;27;105087;-81
2023/10/30 00:16:41;;;;;;;;;16.75;15.25;;;;;-143.90;100.00;74764.97;4990491;28;101749;-80
2023/10/30 00:19:08;;;;;;;;;17.75;17.25;;;;;-143.90;100.00;74771.16;4988368;28;101739;-79
2023/10/30 00:21:35;;;;;;;;;21.75;19.25;;;;;-143.90;100.00;74783.56;4992660;27;101971;-79
2023/10/30 00:24:03;;;;;;;;;19.50;15.00;;;;;-143.90;100.00;74785.63;4988678;27;103350;-79
2023/10/30 00:26:30;;;;;;;;;21.50;19.75;;;;;-143.90;100.00;74812.50;4987778;28;101796;-77
2023/10/30 00:28:57;;;;;;;;;18.25;14.00;;;;;-143.90;100.00;74833.19;4996911;28;101604;-79
2023/10/30 00:31:25;;;;;;;;;19.25;15.25;;;;;-143.90;100.00;74843.53;4992503;27;101835;-79
2023/10/30 00:33:53;;;;;;;;;14.25;12.00;;;;;-143.90;100.00;74849.72;4992505;27;103304;-79
2023/10/30 00:36:19;;;;;;;;;14.00;13.00;;;;;-143.90;100.00;74866.25;4993821;28;101774;-80
2023/10/30 00:38:46;;;;;;;;;10.00;9.75;;;;;-143.90;100.00;74870.38;4991503;27;102533;-79
2023/10/30 00:41:13;;;;;;;;;10.25;8.00;;;;;-143.90;100.00;74872.47;4998293;27;101722;-79
2023/10/30 00:43:40;;;;;;;;;10.50;9.00;;;;;-143.90;100.00;74872.47;4990586;28;102696;-80
2023/10/30 00:46:07;;;;;;;;;9.75;9.00;;;;;-143.90;100.00;74882.78;4970545;27;101852;-79
2023/10/30 00:48:34;;;;;;;;;14.00;13.00;;;;;-143.90;100.00;74876.59;4993937;28;101530;-79
2023/10/30 00:51:02;;;;;;;;;14.00;13.50;;;;;-143.90;100.00;74874.53;4981049;28;101861;-78
2023/10/30 00:53:28;;;;;;;;;28.75;20.25;;;;;-143.90;100.00;74864.19;4995267;27;103328;-79
2023/10/30 00:55:55;;;;;;;;;25.25;21.50;;;;;-143.90;100.00;74858.00;4994125;27;101993;-80
2023/10/30 00:58:21;;;;;;;;;24.00;18.00;;;;;-143.90;100.00;74851.78;4966615;28;101800;-80
2023/10/30 01:00:48;;;;;;;;;33.00;29.50;;;;;-143.90;100.00;74866.25;4996002;27;102511;-79
2023/10/30 01:03:15;;;;;;;;;44.50;34.25;;;;;-143.90;100.00;74884.88;4984906;27;103871;-79
2023/10/30 01:05:42;;;;;;;;;36.25;32.25;;;;;-143.90;100.00;74891.06;4989249;28;101853;-78
2023/10/30 01:08:09;;;;;;;;;39.25;32.50;;;;;-143.90;100.00;74878.66;4993838;28;102108;-81
2023/10/30 01:10:36;;;;;;;;;21.25;21.00;;;;;-143.90;100.00;74872.47;4992872;28;101576;-78
2023/10/30 01:13:03;;;;;;;;;29.50;23.75;;;;;-143.90;100.00;74868.31;4992654;27;103474;-80
2023/10/30 01:15:30;;;;;;;;;20.00;17.00;;;;;-143.90;100.00;74872.47;5000637;28;101681;-77
2023/10/30 01:17:57;;;;;;;;;17.75;15.00;;;;;-143.90;100.00;74872.47;5001811;27;102416;-80
2023/10/30 01:20:23;;;;;;;;;20.25;16.50;;;;;-143.90;100.00;74868.31;4996178;28;101925;-79
2023/10/30 01:22:50;;;;;;;;;10.25;9.75;;;;;-143.90;100.00;74858.00;4963683;28;104725;-79
2023/10/30 01:25:17;;;;;;;;;16.75;14.50;;;;;-143.90;100.00;74862.13;4994361;27;101830;-80
2023/10/30 01:27:44;;;;;;;;;32.50;25.00;;;;;-143.90;100.00;74876.59;5001562;27;101780;-79
2023/10/30 01:30:12;;;;;;;;;50.00;41.25;;;;;-143.90;100.00;74893.13;4996442;28;102468;-81
2023/10/30 01:32:39;;;;;;;;;42.00;37.75;;;;;-143.90;100.00;74901.41;4993702;28;103336;-80
2023/10/30 01:35:06;;;;;;;;;48.75;41.25;;;;;-143.90;100.00;74915.88;4986018;27;101677;-78
2023/10/30 01:37:33;;;;;;;;;49.25;41.00;;;;;-143.90;100.00;74922.06;4998361;28;101726;-79
2023/10/30 01:39:59;;;;;;;;;39.00;36.25;;;;;-143.90;100.00;74920.00;5001511;27;105408;-80
2023/10/30 01:42:26;;;;;;;;;45.75;38.00;;;;;-143.90;100.00;74924.13;4996302;27;108196;-80
2023/10/30 01:44:54;;;;;;;;;50.00;40.75;;;;;-143.90;100.00;74924.13;4988805;27;101744;-79
2023/10/30 01:47:22;;;;;;;;;52.25;42.75;;;;;-143.90;100.00;74924.13;4985101;28;102602;-80
2023/10/30 01:49:50;;;;;;;;;52.50;42.25;;;;;-143.90;100.00;74922.06;4973177;28;101765;-79
2023/10/30 01:52:17;;;;;;;;;45.75;37.00;;;;;-143.90;100.00;74932.41;4989760;27;102819;-80
2023/10/30 01:54:46;;;;;;;;;37.25;33.00;;;;;-143.90;100.00;74922.06;4994276;27;102380;-79
2023/10/30 01:57:19;;;;;;;;;44.50;31.50;;;;;-143.90;100.00;74928.28;4991799;27;101917;-81
2023/10/30 01:59:48;;;;;;;;;37.50;31.75;;;;;-143.90;100.00;74938.59;4967229;28;102800;-79
2023/10/30 02:02:15;;;;;;;;;32.25;28.25;;;;;-143.90;100.00;74953.09;4992650;27;103346;-80
2023/10/30 02:04:42;;;;;;;;;33.00;28.50;;;;;-143.90;100.00;74961.34;4996379;27;101658;-80
2023/10/30 02:07:09;;;;;;;;;31.00;27.25;;;;;-143.90;100.00;74963.41;4937687;28;102106;-80
2023/10/30 02:09:35;;;;;;;;;36.50;31.00;;;;;-143.90;100.00;74986.16;4995364;28;102059;-79
2023/10/30 02:12:02;;;;;;;;;25.50;23.25;;;;;-143.90;100.00;74977.88;4970138;28;103195;-79
2023/10/30 02:14:29;;;;;;;;;18.50;13.50;;;;;-143.90;100.00;74965.50;4983752;27;101877;-78
2023/10/30 02:16:55;;;;;;;;;27.00;25.00;;;;;-143.90;100.00;74963.41;4995689;27;101989;-80
2023/10/30 02:19:24;;;;;;;;;15.75;15.00;;;;;-143.90;100.00;74963.41;4999206;27;101689;-80
2023/10/30 02:21:55;;;;;;;;;22.25;20.00;;;;;-143.90;100.00;74961.34;4992249;27;103065;-79
2023/10/30 02:24:22;;;;;;;;;16.75;13.50;;;;;-143.90;100.00;74979.97;4993464;27;101801;-80
2023/10/30 02:26:50;;;;;;;;;31.00;26.75;;;;;-143.90;100.00;74998.56;4998952;27;101921;-80
2023/10/30 02:29:17;;;;;;;;;34.25;31.50;;;;;-143.90;100.00;74994.44;4979102;27;101715;-79
2023/10/30 02:31:44;;;;;;;;;42.00;36.00;;;;;-143.90;100.00;74994.44;4996978;27;103727;-80
2023/10/30 02:34:11;;;;;;;;;35.50;31.25;;;;;-143.90;100.00;74992.38;4992376;28;101840;-81
2023/10/30 02:36:38;;;;;;;;;37.75;32.50;;;;;-143.90;100.00;74996.50;4990950;28;101602;-80
2023/10/30 02:39:07;;;;;;;;;41.75;35.00;;;;;-143.90;100.00;75002.69;4993348;28;102366;-79
2023/10/30 02:41:34;;;;;;;;;39.25;34.75;;;;;-143.90;100.00;74986.16;4977156;28;103456;-80
2023/10/30 02:44:01;;;;;;;;;31.00;26.75;;;;;-143.90;100.00;74971.69;4989194;27;103675;-79
2023/10/30 02:46:27;;;;;;;;;24.25;21.75;;;;;-143.90;100.00;74965.50;4993674;27;101788;-80
2023/10/30 02:48:55;;;;;;;;;21.50;18.75;;;;;-143.90;100.00;74961.34;4995303;28;101609;-80
2023/10/30 02:51:22;;;;;;;;;22.50;16.00;;;;;-143.90;100.00;74959.28;4977052;28;104839;-79
2023/10/30 02:53:48;;;;;;;;;41.25;35.00;;;;;-143.90;100.00;74961.34;5001396;28;101793;-78
2023/10/30 02:56:15;;;;;;;;;21.50;19.00;;;;;-143.90;100.00;74955.16;4993572;27;101952;-78
2023/10/30 02:58:41;;;;;;;;;38.00;30.75;;;;;-143.90;100.00;74961.34;4995645;28;101617;-80
2023/10/30 03:01:08;;;;;;;;;39.00;34.50;;;;;-143.90;100.00;74957.22;4971341;27;103641;-79
2023/10/30 03:03:34;;;;;;;;;30.75;27.50;;;;;-143.90;100.00;74944.81;4996031;27;102067;-78
2023/10/30 03:06:02;;;;;;;;;21.25;18.75;;;;;-143.90;100.00;74948.94;4998809;28;102086;-79
2023/10/30 03:08:28;;;;;;;;;13.00;11.25;;;;;-143.90;100.00;74948.94;4996543;28;101810;-80
2023/10/30 03:10:55;;;;;;;;;18.50;16.00;;;;;-143.90;100.00;74944.81;4993589;27;103399;-79
2023/10/30 03:13:22;;;;;;;;;15.75;14.50;;;;;-143.90;100.00;74946.88;4990373;28;101883;-80
2023/10/30 03:15:49;;;;;;;;;7.00;4.50;;;;;-143.90;100.00;74944.81;5000015;27;101594;-80
2023/10/30 03:18:15;;;;;;;;;7.00;4.25;;;;;-143.90;100.00;74946.88;4996589;28;101829;-78
2023/10/30 03:20:42;;;;;;;;;11.00;9.50;;;;;-143.90;100.00;74944.81;4995842;27;102787;-79
2023/10/30 03:23:09;;;;;;;;;8.50;7.25;;;;;-143.90;100.00;74951.00;4993769;27;102008;-79
2023/10/30 03:25:35;;;;;;;;;8.00;8.00;;;;;-143.90;100.00;74961.34;4990878;27;101991;-80
2023/10/30 03:28:02;;;;;;;;;11.25;9.50;;;;;-143.90;100.00;74961.34;4999538;27;102165;-79
2023/10/30 03:30:29;;;;;;;;;9.50;9.50;;;;;-143.90;100.00;74955.16;4992566;27;103648;-78
2023/10/30 03:32:56;;;;;;;;;12.25;12.25;;;;;-143.90;100.00;74957.22;4994240;27;102060;-78
2023/10/30 03:35:22;;;;;;;;;15.25;11.00;;;;;-143.90;100.00;74948.94;4989738;27;101595;-79
2023/10/30 03:37:49;;;;;;;;;13.25;11.50;;;;;-143.90;100.00;74948.94;4992220;28;101796;-79
2023/10/30 03:40:15;;;;;;;;;13.75;11.50;;;;;-143.90;100.00;74963.41;4961863;28;110101;-79
2023/10/30 03:42:42;;;;;;;;;27.00;23.75;;;;;-143.90;100.00;74982.03;4991183;28;101730;-79
2023/10/30 03:45:09;;;;;;;;;42.25;34.50;;;;;-143.90;100.00;74977.88;4991226;27;101967;-79
2023/10/30 03:47:35;;;;;;;;;56.33;46.33;;;;;-143.90;100.00;74990.28;4991095;27;102577;-79
2023/10/30 03:50:02;;;;;;;;;58.67;46.33;;;;;-143.90;100.00;75004.75;4975833;27;103489;-79
2023/10/30 03:52:29;;;;;;;;;51.75;38.75;;;;;-143.90;100.00;75019.22;4980210;27;101689;-79
2023/10/30 03:54:59;;;;;;;;;44.00;39.25;;;;;-143.90;100.00;75039.91;4998376;28;101909;-79
2023/10/30 03:57:25;;;;;;;;;40.75;32.50;;;;;-143.90;100.00;75033.72;4993952;27;101743;-79
2023/10/30 03:59:52;;;;;;;;;25.00;23.25;;;;;-143.90;100.00;75031.63;4974892;27;104232;-79
2023/10/30 04:02:19;;;;;;;;;32.00;28.00;;;;;-143.90;100.00;75050.25;4992920;27;102120;-79
2023/10/30 04:04:45;;;;;;;;;30.50;26.50;;;;;-143.90;100.00;75052.31;4997914;27;104163;-78
2023/10/30 04:07:12;;;;;;;;;20.75;18.75;;;;;-143.90;100.00;75039.91;5005129;27;101904;-79
2023/10/30 04:09:39;;;;;;;;;20.75;20.25;;;;;-143.90;100.00;75046.09;4998327;27;103104;-78
2023/10/30 04:12:06;;;;;;;;;25.75;22.25;;;;;-143.90;100.00;75060.59;4998343;27;101578;-79
2023/10/30 04:14:32;;;;;;;;;24.50;17.50;;;;;-143.90;100.00;75056.44;4994955;28;101526;-79
2023/10/30 04:17:02;;;;;;;;;19.25;16.00;;;;;-143.90;100.00;75046.09;5004630;27;101938;-78
2023/10/30 04:19:30;;;;;;;;;22.00;14.00;;;;;-143.90;100.00;75064.72;5000842;27;103521;-78
2023/10/30 04:21:56;;;;;;;;;16.25;13.50;;;;;-143.90;100.00;75072.97;5001326;27;101486;-78
2023/10/30 04:24:23;;;;;;;;;17.00;14.00;;;;;-143.90;100.00;75075.06;4997395;28;101820;-78
2023/10/30 04:26:49;;;;;;;;;24.75;23.25;;;;;-143.90;100.00;75068.84;4994764;27;103361;-73
2023/10/30 04:29:17;;;;;;;;;18.00;15.00;;;;;-143.90;100.00;75072.97;5005033;27;103340;-78
2023/10/30 04:31:43;;;;;;;;;28.75;26.50;;;;;-143.90;100.00;75077.13;5001044;27;101704;-77
2023/10/30 04:34:10;;;;;;;;;31.00;26.75;;;;;-143.90;100.00;75083.31;5001355;27;102297;-76
2023/10/30 04:36:36;;;;;;;;;50.25;39.75;;;;;-143.90;100.00;75085.38;4998343;28;101929;-79
2023/10/30 04:39:03;;;;;;;;;54.00;39.25;;;;;-143.90;100.00;75064.72;4993506;28;103343;-79
2023/10/30 04:41:33;;;;;;;;;35.25;31.00;;;;;-143.90;100.00;75060.59;4995728;28;101919;-78
2023/10/30 04:44:00;;;;;;;;;32.25;30.75;;;;;-143.90;100.00;75060.59;4997479;27;102494;-79
2023/10/30 04:46:26;;;;;;;;;30.75;28.50;;;;;-143.90;100.00;75060.59;5002232;27;101960;-79
2023/10/30 04:48:53;;;;;;;;;42.75;37.00;;;;;-143.90;100.00;75037.84;4986631;28;103759;-77
2023/10/30 04:51:19;;;;;;;;;30.00;24.50;;;;;-143.90;100.00;75031.63;4972664;28;103136;-78
2023/10/30 04:53:46;;;;;;;;;52.25;38.50;;;;;-143.90;100.00;75027.50;4978762;28;101909;-78
2023/10/30 04:56:12;;;;;;;;;39.50;36.00;;;;;-143.90;100.00;75023.38;4976242;28;102119;-78
2023/10/30 04:58:39;;;;;;;;;31.00;25.50;;;;;-143.90;100.00;75023.38;4967060;28;103522;-78
2023/10/30 05:01:09;;;;;;;;;32.75;30.50;;;;;-143.90;100.00;75023.38;4965835;28;102083;-78
2023/10/30 05:03:36;;;;;;;;;32.00;29.75;;;;;-143.90;100.00;75031.63;4984479;28;102185;-79
2023/10/30 05:06:04;;;;;;;;;32.25;27.25;;;;;-143.90;100.00;75037.84;4963936;28;101723;-78
2023/10/30 05:08:31;;;;;;;;;33.25;25.75;;;;;-143.90;100.00;75039.91;4974819;28;105143;-78
2023/10/30 05:11:02;;;;;;;;;19.75;18.25;;;;;-143.90;100.00;75037.84;4976080;28;102756;-79
2023/10/30 05:13:29;;;;;;;;;20.25;16.25;;;;;-143.90;100.00;75039.91;4987737;28;103120;-79
2023/10/30 05:15:56;;;;;;;;;23.25;18.00;;;;;-143.90;100.00;75046.09;4970073;28;101940;-79
2023/10/30 05:18:24;;;;;;;;;15.00;15.00;;;;;-143.90;100.00;75048.19;4970799;28;103748;-79
2023/10/30 05:20:51;;;;;;;;;24.25;20.25;;;;;-143.90;100.00;75048.19;4971654;28;101787;-79
2023/10/30 05:23:18;;;;;;;;;20.50;18.25;;;;;-143.90;100.00;75048.19;4977291;28;101770;-78
2023/10/30 05:25:45;;;;;;;;;29.25;27.75;;;;;-143.90;100.00;75060.59;4973154;28;101796;-78
2023/10/30 05:28:12;;;;;;;;;37.50;34.75;;;;;-143.90;100.00;75064.72;4971811;28;103452;-80
2023/10/30 05:30:39;;;;;;;;;31.00;27.75;;;;;-143.90;100.00;75070.91;4974405;28;101769;-79
2023/10/30 05:33:06;;;;;;;;;40.25;35.75;;;;;-143.90;100.00;75081.25;4977801;28;101993;-79
2023/10/30 05:35:33;;;;;;;;;68.00;54.67;;;;;-143.90;100.00;75070.91;4971511;28;101645;-79
2023/10/30 05:37:59;;;;;;;;;64.33;51.33;;;;;-143.90;100.00;75056.44;4969044;28;105063;-78
2023/10/30 05:40:26;;;;;;;;;56.00;45.67;;;;;-143.90;100.00;75044.03;4969785;28;101668;-79
2023/10/30 05:42:53;;;;;;;;;59.33;48.67;;;;;-143.90;100.00;75046.09;4977355;28;102021;-78
2023/10/30 05:45:19;;;;;;;;;56.67;46.00;;;;;-143.90;100.00;75044.03;4974533;28;104738;-79
2023/10/30 05:47:47;;;;;;;;;43.75;39.00;;;;;-143.90;100.00;75015.09;4997040;28;102824;-78
2023/10/30 05:50:14;;;;;;;;;35.00;30.75;;;;;-143.90;100.00;75002.69;4993830;28;101531;-78
2023/10/30 05:52:40;;;;;;;;;24.25;19.50;;;;;-143.90;100.00;74990.28;4988968;28;101584;-78
2023/10/30 05:55:08;;;;;;;;;23.25;19.00;;;;;-143.90;100.00;74971.69;5004547;27;101663;-79
2023/10/30 05:57:37;;;;;;;;;19.50;15.75;;;;;-143.90;100.00;74955.16;4995112;28;106748;-78
2023/10/30 06:00:05;;;;;;;;;16.50;13.75;;;;;-143.90;100.00;74965.50;4972666;28;101805;-79
2023/10/30 06:02:32;;;;;;;;;9.00;6.75;;;;;-143.90;100.00;74961.34;4990380;27;102612;-78
2023/10/30 06:04:59;;;;;;;;;12.00;10.00;;;;;-143.90;100.00;74948.94;4965877;28;101660;-78
2023/10/30 06:07:25;;;;;;;;;10.25;9.25;;;;;-143.90;100.00;74940.69;4990604;27;102810;-79
2023/10/30 06:09:53;;;;;;;;;7.75;7.75;;;;;-143.90;100.00;74928.28;4987954;28;102004;-79
2023/10/30 06:12:20;;;;;;;;;9.00;7.25;;;;;-143.90;100.00;74911.72;4995242;27;101673;-78
2023/10/30 06:14:47;;;;;;;;;6.00;4.00;;;;;-143.90;100.00;74884.88;4989650;28;101447;-78
2023/10/30 06:17:14;;;;;;;;;3.50;3.50;;;;;-143.90;100.00;74866.25;4992474;27;102777;-79
2023/10/30 06:19:41;;;;;;;;;6.00;5.00;;;;;-143.90;100.00;74845.59;5000275;28;101898;-78
2023/10/30 06:22:08;;;;;;;;;8.00;6.75;;;;;-143.90;100.00;74820.78;5002176;28;102147;-79
2023/10/30 06:24:35;;;;;;;;;4.00;4.00;;;;;-143.90;100.00;74806.31;4976713;27;101674;-78
2023/10/30 06:27:02;;;;;;;;;4.25;4.25;;;;;-143.90;100.00;74795.97;4992830;27;102967;-78
2023/10/30 06:29:28;;;;;;;;;3.00;3.00;;;;;-143.90;100.00;74779.44;4991942;27;101853;-78
2023/10/30 06:31:55;;;;;;;;;5.75;4.75;;;;;-143.90;100.00;74775.31;4995968;27;101986;-78
2023/10/30 06:34:22;;;;;;;;;4.25;4.00;;;;;-143.90;100.00;74775.31;5000993;27;102082;-79
2023/10/30 06:36:49;;;;;;;;;7.00;5.25;;;;;-143.90;100.00;74762.91;4995757;28;103663;-79
2023/10/30 06:39:20;;;;;;;;;8.00;8.00;;;;;-143.90;100.00;74754.63;4996436;27;101997;-79
2023/10/30 06:41:48;;;;;;;;;6.00;5.00;;;;;-143.90;100.00;74750.50;4990363;27;101607;-79
2023/10/30 06:44:15;;;;;;;;;5.50;5.00;;;;;-143.90;100.00;74750.50;5003245;27;101749;-78
2023/10/30 06:46:44;;;;;;;;;6.00;5.00;;;;;-143.90;100.00;74750.50;4996585;27;103709;-78
2023/10/30 06:49:11;;;;;;;;;4.50;4.50;;;;;-143.90;100.00;74744.28;4995848;28;106662;-78
2023/10/30 06:51:37;;;;;;;;;4.00;3.00;;;;;-143.90;100.00;74723.63;4976793;28;101852;-78
2023/10/30 06:54:04;;;;;;;;;4.25;4.00;;;;;-143.90;100.00;74700.88;4993586;27;101613;-79
2023/10/30 06:56:31;;;;;;;;;3.00;3.00;;;;;-143.90;100.00;74692.63;5000566;27;102859;-78
2023/10/30 06:58:57;;;;;;;;;2.50;2.25;;;;;-143.90;100.00;74674.00;4997316;27;101713;-78
2023/10/30 07:01:24;;;;;;;;;1.00;1.00;;;;;-143.90;100.00;74663.66;4974532;27;101817;-80
2023/10/30 07:03:51;;;;;;;;;0.25;0.00;;;;;-143.90;100.00;74647.13;4993252;27;101903;-79
2023/10/30 07:06:17;;;;;;;;;3.25;3.25;;;;;-143.90;100.00;74638.88;4988434;28;103548;-80
2023/10/30 07:08:44;;;;;;;;;3.75;2.75;;;;;-143.90;100.00;74618.19;4995390;28;101605;-78
2023/10/30 07:11:11;;;;;;;;;3.50;2.25;;;;;-143.90;100.00;74601.66;4998531;27;101828;-77
2023/10/30 07:13:37;;;;;;;;;1.00;1.00;;;;;-143.90;100.00;74587.19;4999789;27;102337;-79
2023/10/30 07:16:04;;;;;;;;;3.00;2.00;;;;;-143.90;100.00;74576.84;4991525;28;104718;-80
2023/10/30 07:18:31;;;;;;;;;3.00;1.75;;;;;-143.90;100.00;74558.25;4975071;27;102531;-78
2023/10/30 07:20:57;;;;;;;;;1.50;1.00;;;;;-143.90;100.00;74545.84;4987341;27;101644;-79
2023/10/30 07:23:24;;;;;;;;;1.00;0.50;;;;;-143.90;100.00;74527.25;4993270;27;101958;-79
2023/10/30 07:25:51;;;;;;;;;1.50;1.00;;;;;-143.90;100.00;74523.09;4996850;27;103424;-78
2023/10/30 07:28:18;;;;;;;;;1.00;1.00;;;;;-143.90;100.00;74508.63;4992261;28;101512;-79
2023/10/30 07:30:44;;;;;;;;;1.00;1.00;;;;;-143.90;100.00;74490.03;4990107;27;102082;-78
2023/10/30 07:33:11;;;;;;;;;1.00;1.00;;;;;-143.90;100.00;74481.78;4991443;27;106406;-74
2023/10/30 07:35:38;;;;;;;;;1.00;1.00;;;;;-143.90;100.00;74473.50;4999713;27;103209;-79
2023/10/30 07:38:05;;;;;;;;;2.00;2.00;;;;;-143.90;100.00;74459.03;4991018;27;101973;-77
2023/10/30 07:40:31;;;;;;;;;2.00;1.00;;;;;-143.90;100.00;74444.56;4989877;27;101575;-79
2023/10/30 07:42:58;;;;;;;;;0.00;0.00;;;;;-143.90;100.00;74425.97;4962043;28;101594;-78
2023/10/30 07:45:24;;;;;;;;;1.00;1.00;;;;;-143.90;100.00;74419.75;4996491;27;102861;-79
2023/10/30 07:47:52;;;;;;;;;0.00;0.00;;;;;-143.90;100.00;74415.63;4999430;27;103238;-78
2023/10/30 07:50:19;;;;;;;;;1.00;0.00;;;;;-143.90;100.00;74405.28;4984294;27;101652;-79
2023/10/30 07:52:46;;;;;;;;;0.50;0.50;;;;;-143.90;100.00;74394.94;4992203;27;101534;-79
2023/10/30 07:55:12;;;;;;;;;1.00;0.00;;;;;-143.90;100.00;74384.63;4990494;28;103703;-75
2023/10/30 07:57:39;;;;;;;;;1.00;0.50;;;;;-143.90;100.00;74378.41;5000223;27;101672;-79
2023/10/30 08:00:08;;;;;;;;;0.75;0.00;;;;;-143.90;100.00;74366.00;4997222;27;101714;-79
2023/10/30 08:02:35;;;;;;;;;0.00;0.00;;;;;-143.90;100.00;74357.75;5003817;27;101929;-80
2023/10/30 08:05:01;;;;;;;;;1.00;0.00;;;;;-143.90;100.00;74359.81;4997317;27;103466;-79
2023/10/30 08:07:28;;;;;;;;;1.00;0.00;;;;;-143.90;100.00;74349.47;4992308;27;101512;-80
2023/10/30 08:09:55;;;;;;;;;0.00;0.00;;;;;-143.90;100.00;74347.41;4996248;27;101928;-79
2023/10/30 08:12:23;;;;;;;;;0.00;0.00;;;;;-143.90;100.00;74343.28;4996494;27;101879;-79
2023/10/30 08:14:52;;;;;;;;;1.00;0.00;;;;;-143.90;100.00;74330.88;4994691;27;103333;-78
2023/10/30 08:17:18;;;;;;;;;0.00;0.00;;;;;-143.90;100.00;74324.69;4975062;28;102809;-78
2023/10/30 08:19:45;;;;;;;;;0.00;0.00;;;;;-143.90;100.00;74304.00;4993964;27;101606;-78
2023/10/30 08:22:11;;;;;;;;;0.00;0.00;;;;;-143.90;100.00;74295.75;5002116;27;101640;-80
2023/10/30 08:24:38;;;;;;;;;0.00;0.00;;;;;-143.90;100.00;74275.06;4998084;27;112132;-80
2023/10/30 08:27:04;;;;;;;;;0.00;0.00;;;;;-143.90;100.00;74273.00;4995459;27;101758;-79
2023/10/30 08:29:31;;;;;;;;;1.00;1.00;;;;;-143.90;100.00;74262.66;4993779;28;101674;-80
2023/10/30 08:31:58;;;;;;;;;1.00;1.00;;;;;-143.90;100.00;74250.25;4994384;28;101618;-79
2023/10/30 08:34:25;;;;;;;;;1.00;0.00;;;;;-143.90;100.00;74242.00;4992392;27;102884;-80
2023/10/30 08:36:52;;;;;;;;;0.00;0.00;;;;;-143.90;100.00;74237.88;4977975;27;101622;-79
2023/10/30 08:39:18;;;;;;;;;1.75;0.00;;;;;-143.90;100.00;74221.31;4992304;28;101885;-80
2023/10/30 08:41:45;;;;;;;;;1.25;1.25;;;;;-143.90;100.00;74221.31;4975078;27;101589;-79
2023/10/30 08:44:11;;;;;;;;;1.00;1.00;;;;;-143.90;100.00;74208.94;4994819;27;102355;-78
2023/10/30 08:46:38;;;;;;;;;1.00;1.00;;;;;-143.90;100.00;74196.53;4997417;27;101636;-80
2023/10/30 08:49:05;;;;;;;;;1.00;0.25;;;;;-143.90;100.00;74190.31;4996726;28;101775;-80
2023/10/30 08:51:39;;;;;;;;;0.50;0.50;;;;;-143.90;100.00;74171.72;4993603;27;101462;-78
2023/10/30 08:54:19;;;;;;;;;4.75;4.50;;;;;-143.90;100.00;74190.31;4975684;28;107716;-79
2023/10/30 08:56:46;;;;;;;;;5.00;4.00;;;;;-143.90;100.00;74167.59;4992235;27;101664;-79
2023/10/30 08:59:13;;;;;;;;;3.25;3.25;;;;;-143.90;100.00;74161.38;5007415;27;101610;-81
2023/10/30 09:01:39;;;;;;;;;5.00;4.00;;;;;-143.90;100.00;74151.06;5005065;27;101945;-80
2023/10/30 09:04:06;;;;;;;;;3.50;3.00;;;;;-143.90;100.00;74136.59;4997103;27;103463;-81
2023/10/30 09:06:34;;;;;;;;;3.50;2.25;;;;;-143.90;98.86;74126.25;4995717;27;101928;-80
2023/10/30 09:09:01;;;;;;;;;4.75;4.00;;;;;-143.90;98.86;74130.38;4992194;28;101514;-78
2023/10/30 09:11:28;;;;;;;;;4.75;4.25;;;;;-143.90;98.97;74120.06;5000800;28;101962;-80
2023/10/30 09:13:54;;;;;;;;;4.00;3.00;;;;;-143.90;100.00;74107.66;4994469;28;103509;-80
2023/10/30 09:16:21;;;;;;;;;3.00;3.00;;;;;-143.90;99.91;74093.19;4981154;27;101907;-79
2023/10/30 09:18:48;;;;;;;;;4.00;4.00;;;;;-143.90;98.18;74080.78;4995656;27;102004;-77
2023/10/30 09:21:14;;;;;;;;;3.00;2.00;;;;;-143.90;98.43;74078.72;4997649;27;101977;-73
2023/10/30 09:23:42;;;;;;;;;7.00;5.50;;;;;-143.90;97.48;74097.31;5004480;27;103834;-77
2023/10/30 09:26:10;;;;;;;;;5.00;4.00;;;;;-143.90;96.46;74086.97;4999669;27;101581;-79
2023/10/30 09:28:37;;;;;;;;;5.00;4.00;;;;;-143.90;96.71;74076.66;4999095;27;102332;-82
2023/10/30 09:31:04;;;;;;;;;4.00;4.00;;;;;-143.90;97.05;74062.19;4998801;27;101627;-81
2023/10/30 09:33:32;;;;;;;;;3.00;3.00;;;;;-143.90;96.26;74060.13;4977695;28;103708;-81
2023/10/30 09:35:59;;;;;;;;;3.67;3.00;;;;;-143.90;97.48;74045.66;4998278;27;101825;-78
2023/10/30 09:38:26;;;;;;;;;2.33;2.33;;;;;-143.90;95.41;74035.31;5002700;28;101952;-81
2023/10/30 09:41:04;;;;;;;;;3.00;2.00;;;;;-143.90;97.30;74033.25;4997402;27;102615;-80
2023/10/30 09:43:33;;;;;;;;;4.00;3.67;;;;;-143.90;96.03;74039.44;4995248;27;103363;-81
2023/10/30 09:46:02;;;;;;;;;4.00;3.00;;;;;-143.90;96.19;74029.13;4992867;28;101488;-80
2023/10/30 09:48:31;;;;;;;;;2.00;2.00;;;;;-143.90;94.51;74022.91;4994931;27;102008;-80
2023/10/30 09:50:58;;;;;;;;;2.33;2.33;;;;;-143.90;94.86;74010.50;4999592;27;101760;-82
2023/10/30 09:53:25;;;;;;;;;2.00;2.00;;;;;-143.90;93.10;73993.97;4992080;27;103438;-83
2023/10/30 09:55:54;;;;;;;;;2.00;2.00;;;;;-143.90;93.60;73989.84;4997006;27;101826;-81
2023/10/30 09:58:23;;;;;;;;;0.33;0.00;;;;;-143.90;95.21;73969.19;4995034;28;101799;-82
2023/10/30 10:00:49;;;;;;;;;0.00;0.00;;;;;-143.90;92.81;73950.56;5001341;27;102374;-82
2023/10/30 10:03:17;;;;;;;;;1.67;0.33;;;;;-143.90;91.43;73936.09;4998716;28;103378;-80
2023/10/30 10:05:53;;;;;;;;;0.00;0.00;;;;;-143.90;91.22;73931.97;5000527;27;101533;-81
2023/10/30 10:08:21;;;;;;;;;1.67;1.00;;;;;-143.90;90.62;73934.03;4994921;27;102017;-81
2023/10/30 10:10:59;;;;;;;;;0.00;0.00;;;;;-143.90;92.33;73927.84;4996543;27;101878;-80
2023/10/30 10:13:28;;;;;;;;;0.33;0.33;;;;;-143.90;90.23;73911.31;5001472;27;103376;-80
2023/10/30 10:15:55;;;;;;;;;0.33;0.33;;;;;-143.90;90.44;73913.38;4995641;27;103229;-81
2023/10/30 10:18:33;;;;;;;;;1.00;1.00;;;;;-143.90;89.65;73894.78;4996987;27;102735;-81
2023/10/30 10:21:01;;;;;;;;;0.67;0.00;;;;;-143.90;87.98;73888.56;4993844;27;101592;-81
2023/10/30 10:23:32;;;;;;;;;1.00;1.00;;;;;-143.90;88.36;73898.91;4995129;27;103828;-80
2023/10/30 10:26:03;;;;;;;;;3.33;1.00;;;;;-143.90;88.38;73905.09;4987429;27;101610;-81
2023/10/30 10:28:31;;;;;;;;;2.33;2.00;;;;;-143.90;88.08;73886.50;4993627;28;102001;-81
2023/10/30 10:30:58;;;;;;;;;1.67;1.00;;;;;-143.90;86.57;73900.97;4977973;28;102273;-81
2023/10/30 10:33:27;;;;;;;;;0.67;0.67;;;;;-143.90;88.97;73890.63;4994379;27;103559;-81
2023/10/30 10:35:55;;;;;;;;;0.00;0.00;;;;;-143.90;89.27;73878.25;4991400;28;101455;-80
2023/10/30 10:38:22;;;;;;;;;1.00;1.00;;;;;-143.90;85.84;73884.44;5005470;27;101775;-80
2023/10/30 10:40:50;;;;;;;;;1.00;1.00;;;;;-143.90;84.76;73884.44;4999988;27;102015;-82
2023/10/30 10:43:19;;;;;;;;;5.00;1.67;;;;;-143.90;87.96;73886.50;4971288;28;103482;-78
2023/10/30 10:45:48;;;;;;;;;1.00;1.00;;;;;-143.90;85.90;73874.09;4993159;28;101765;-81
2023/10/30 10:48:16;;;;;;;;;1.33;0.67;;;;;-143.90;86.90;73861.69;4993191;28;101552;-81
2023/10/30 10:50:43;;;;;;;;;1.67;1.00;;;;;-143.90;86.05;73859.63;5002755;27;102338;-82
2023/10/30 10:53:11;;;;;;;;;1.00;1.00;;;;;-143.90;83.62;73845.16;4998148;27;103379;-81
2023/10/30 10:55:45;;;;;;;;;2.33;2.00;;;;;-143.90;83.03;73843.09;5002190;27;101962;-81